sensor_id;sensor_type;location;lat;lon;timestamp;temperature;humidity
31765;DHT22;18338;53.240;8.798;2024-02-04T00:01:32;7.10;99.90
31765;DHT22;18338;53.240;8.798;2024-02-04T00:03:59;7.10;99.90
31765;DHT22;18338;53.240;8.798;2024-02-04T00:06:26;7.10;99.90
31765;DHT22;18338;53.240;8.798;2024-02-04T00:08:53;7.20;99.90
31765;DHT22;18338;53.240;8.798;2024-02-04T00:11:20;7.30;99.90
31765;DHT22;18338;53.240;8.798;2024-02-04T00:13:47;7.30;99.90
31765;DHT22;18338;53.240;8.798;2024-02-04T00:16:13;7.40;99.90
31765;DHT22;18338;53.240;8.798;2024-02-04T00:18:40;7.40;99.90
31765;DHT22;18338;53.240;8.798;2024-02-04T00:21:07;7.40;99.90
31765;DHT22;18338;53.240;8.798;2024-02-04T00:23:34;7.30;99.90
31765;DHT22;18338;53.240;8.798;2024-02-04T00:26:00;7.30;99.90
31765;DHT22;18338;53.240;8.798;2024-02-04T00:28:27;7.20;99.90
31765;DHT22;18338;53.240;8.798;2024-02-04T00:30:56;7.20;99.90
31765;DHT22;18338;53.240;8.798;2024-02-04T00:33:25;7.10;99.90
31765;DHT22;18338;53.240;8.798;2024-02-04T00:35:52;7.10;99.90
31765;DHT22;18338;53.240;8.798;2024-02-04T00:38:19;7.00;99.90
31765;DHT22;18338;53.240;8.798;2024-02-04T00:40:45;7.10;99.90
31765;DHT22;18338;53.240;8.798;2024-02-04T00:43:12;7.10;99.90
31765;DHT22;18338;53.240;8.798;2024-02-04T00:45:38;7.10;99.90
31765;DHT22;18338;53.240;8.798;2024-02-04T00:48:05;7.10;99.90
31765;DHT22;18338;53.240;8.798;2024-02-04T00:50:32;7.10;99.90
31765;DHT22;18338;53.240;8.798;2024-02-04T00:52:59;7.10;99.90
31765;DHT22;18338;53.240;8.798;2024-02-04T00:55:25;7.10;99.90
31765;DHT22;18338;53.240;8.798;2024-02-04T00:57:52;7.20;99.90
31765;DHT22;18338;53.240;8.798;2024-02-04T01:00:19;7.30;99.90
31765;DHT22;18338;53.240;8.798;2024-02-04T01:02:46;7.20;99.90
31765;DHT22;18338;53.240;8.798;2024-02-04T01:05:12;7.30;99.90
31765;DHT22;18338;53.240;8.798;2024-02-04T01:07:41;7.30;99.90
31765;DHT22;18338;53.240;8.798;2024-02-04T01:10:08;7.20;99.90
31765;DHT22;18338;53.240;8.798;2024-02-04T01:12:36;7.20;99.90
31765;DHT22;18338;53.240;8.798;2024-02-04T01:15:03;7.20;99.90
31765;DHT22;18338;53.240;8.798;2024-02-04T01:17:31;7.20;99.90
31765;DHT22;18338;53.240;8.798;2024-02-04T01:20:00;7.10;99.90
31765;DHT22;18338;53.240;8.798;2024-02-04T01:22:27;7.10;99.90
31765;DHT22;18338;53.240;8.798;2024-02-04T01:24:54;7.10;99.90
31765;DHT22;18338;53.240;8.798;2024-02-04T01:27:21;7.00;99.90
31765;DHT22;18338;53.240;8.798;2024-02-04T01:29:48;7.00;99.90
31765;DHT22;18338;53.240;8.798;2024-02-04T01:32:14;7.10;99.90
31765;DHT22;18338;53.240;8.798;2024-02-04T01:34:41;7.10;99.90
31765;DHT22;18338;53.240;8.798;2024-02-04T01:37:08;7.10;99.90
31765;DHT22;18338;53.240;8.798;2024-02-04T01:39:34;7.20;99.90
31765;DHT22;18338;53.240;8.798;2024-02-04T01:42:01;7.20;99.90
31765;DHT22;18338;53.240;8.798;2024-02-04T01:44:29;7.20;99.90
31765;DHT22;18338;53.240;8.798;2024-02-04T01:46:56;7.30;99.90
31765;DHT22;18338;53.240;8.798;2024-02-04T01:49:23;7.30;99.90
31765;DHT22;18338;53.240;8.798;2024-02-04T01:51:52;7.30;99.90
31765;DHT22;18338;53.240;8.798;2024-02-04T01:54:20;7.30;99.90
31765;DHT22;18338;53.240;8.798;2024-02-04T01:56:50;7.30;99.90
31765;DHT22;18338;53.240;8.798;2024-02-04T01:59:19;7.20;99.90
31765;DHT22;18338;53.240;8.798;2024-02-04T02:01:47;7.20;99.90
31765;DHT22;18338;53.240;8.798;2024-02-04T02:04:14;7.10;99.90
31765;DHT22;18338;53.240;8.798;2024-02-04T02:06:41;7.10;99.90
31765;DHT22;18338;53.240;8.798;2024-02-04T02:09:09;7.10;99.90
31765;DHT22;18338;53.240;8.798;2024-02-04T02:11:40;7.00;99.90
31765;DHT22;18338;53.240;8.798;2024-02-04T02:14:13;6.90;99.90
31765;DHT22;18338;53.240;8.798;2024-02-04T02:16:42;6.90;99.90
31765;DHT22;18338;53.240;8.798;2024-02-04T02:19:31;6.90;99.90
31765;DHT22;18338;53.240;8.798;2024-02-04T02:22:11;6.80;99.90
31765;DHT22;18338;53.240;8.798;2024-02-04T02:24:42;6.80;99.90
31765;DHT22;18338;53.240;8.798;2024-02-04T02:27:09;6.70;99.90
31765;DHT22;18338;53.240;8.798;2024-02-04T02:29:36;6.70;99.90
31765;DHT22;18338;53.240;8.798;2024-02-04T02:32:02;6.70;99.90
31765;DHT22;18338;53.240;8.798;2024-02-04T02:34:30;6.70;99.90
31765;DHT22;18338;53.240;8.798;2024-02-04T02:37:29;6.70;99.90
31765;DHT22;18338;53.240;8.798;2024-02-04T02:40:16;6.70;99.90
31765;DHT22;18338;53.240;8.798;2024-02-04T02:42:47;6.70;99.90
31765;DHT22;18338;53.240;8.798;2024-02-04T02:45:16;6.70;99.90
31765;DHT22;18338;53.240;8.798;2024-02-04T02:47:44;6.60;99.90
31765;DHT22;18338;53.240;8.798;2024-02-04T02:50:13;6.70;99.90
31765;DHT22;18338;53.240;8.798;2024-02-04T02:52:40;6.70;99.90
31765;DHT22;18338;53.240;8.798;2024-02-04T02:55:07;6.70;99.90
31765;DHT22;18338;53.240;8.798;2024-02-04T02:57:34;6.70;99.90
31765;DHT22;18338;53.240;8.798;2024-02-04T03:00:01;6.70;99.90
31765;DHT22;18338;53.240;8.798;2024-02-04T03:02:29;6.60;99.90
31765;DHT22;18338;53.240;8.798;2024-02-04T03:04:56;6.60;99.90
31765;DHT22;18338;53.240;8.798;2024-02-04T03:07:23;6.50;99.90
31765;DHT22;18338;53.240;8.798;2024-02-04T03:09:49;6.50;99.90
31765;DHT22;18338;53.240;8.798;2024-02-04T03:12:16;6.40;99.90
31765;DHT22;18338;53.240;8.798;2024-02-04T03:14:43;6.50;99.90
31765;DHT22;18338;53.240;8.798;2024-02-04T03:17:10;6.50;99.90
31765;DHT22;18338;53.240;8.798;2024-02-04T03:19:38;6.40;99.90
31765;DHT22;18338;53.240;8.798;2024-02-04T03:22:05;6.40;99.90
31765;DHT22;18338;53.240;8.798;2024-02-04T03:24:31;6.30;99.90
31765;DHT22;18338;53.240;8.798;2024-02-04T03:26:58;6.40;99.90
31765;DHT22;18338;53.240;8.798;2024-02-04T03:29:25;6.40;99.90
31765;DHT22;18338;53.240;8.798;2024-02-04T03:31:51;6.40;99.90
31765;DHT22;18338;53.240;8.798;2024-02-04T03:34:18;6.40;99.90
31765;DHT22;18338;53.240;8.798;2024-02-04T03:36:45;6.40;99.90
31765;DHT22;18338;53.240;8.798;2024-02-04T03:39:12;6.40;99.90
31765;DHT22;18338;53.240;8.798;2024-02-04T03:41:38;6.40;99.90
31765;DHT22;18338;53.240;8.798;2024-02-04T03:44:05;6.40;99.90
31765;DHT22;18338;53.240;8.798;2024-02-04T03:46:32;6.40;99.90
31765;DHT22;18338;53.240;8.798;2024-02-04T03:48:58;6.40;99.90
31765;DHT22;18338;53.240;8.798;2024-02-04T03:51:26;6.40;99.90
31765;DHT22;18338;53.240;8.798;2024-02-04T03:53:52;6.40;99.90
31765;DHT22;18338;53.240;8.798;2024-02-04T03:56:19;6.40;99.90
31765;DHT22;18338;53.240;8.798;2024-02-04T03:58:46;6.30;99.90
31765;DHT22;18338;53.240;8.798;2024-02-04T04:01:13;6.30;99.90
31765;DHT22;18338;53.240;8.798;2024-02-04T04:03:43;6.30;99.90
31765;DHT22;18338;53.240;8.798;2024-02-04T04:06:11;6.30;99.90
31765;DHT22;18338;53.240;8.798;2024-02-04T04:08:38;6.30;99.90
31765;DHT22;18338;53.240;8.798;2024-02-04T04:11:06;6.20;99.90
31765;DHT22;18338;53.240;8.798;2024-02-04T04:13:33;6.20;99.90
31765;DHT22;18338;53.240;8.798;2024-02-04T04:16:02;6.20;99.90
31765;DHT22;18338;53.240;8.798;2024-02-04T04:18:29;6.20;99.90
31765;DHT22;18338;53.240;8.798;2024-02-04T04:20:57;6.20;99.90
31765;DHT22;18338;53.240;8.798;2024-02-04T04:23:23;6.20;99.90
31765;DHT22;18338;53.240;8.798;2024-02-04T04:25:50;6.20;99.90
31765;DHT22;18338;53.240;8.798;2024-02-04T04:28:17;6.20;99.90
31765;DHT22;18338;53.240;8.798;2024-02-04T04:30:44;6.30;99.90
31765;DHT22;18338;53.240;8.798;2024-02-04T04:33:11;6.20;99.90
31765;DHT22;18338;53.240;8.798;2024-02-04T04:35:39;6.30;99.90
31765;DHT22;18338;53.240;8.798;2024-02-04T04:38:05;6.20;99.90
31765;DHT22;18338;53.240;8.798;2024-02-04T04:40:32;6.20;99.90
31765;DHT22;18338;53.240;8.798;2024-02-04T04:42:59;6.20;99.90
31765;DHT22;18338;53.240;8.798;2024-02-04T04:45:26;6.20;99.90
31765;DHT22;18338;53.240;8.798;2024-02-04T04:47:53;6.10;99.90
31765;DHT22;18338;53.240;8.798;2024-02-04T04:50:19;6.10;99.90
31765;DHT22;18338;53.240;8.798;2024-02-04T04:52:46;6.10;99.90
31765;DHT22;18338;53.240;8.798;2024-02-04T04:55:13;6.10;99.90
31765;DHT22;18338;53.240;8.798;2024-02-04T04:57:39;6.10;99.90
31765;DHT22;18338;53.240;8.798;2024-02-04T05:00:06;6.10;99.90
31765;DHT22;18338;53.240;8.798;2024-02-04T05:02:36;6.10;99.90
31765;DHT22;18338;53.240;8.798;2024-02-04T05:05:04;6.10;99.90
31765;DHT22;18338;53.240;8.798;2024-02-04T05:07:31;6.10;99.90
31765;DHT22;18338;53.240;8.798;2024-02-04T05:09:58;6.10;99.90
31765;DHT22;18338;53.240;8.798;2024-02-04T05:12:24;6.10;99.90
31765;DHT22;18338;53.240;8.798;2024-02-04T05:14:51;6.10;99.90
31765;DHT22;18338;53.240;8.798;2024-02-04T05:17:18;6.10;99.90
31765;DHT22;18338;53.240;8.798;2024-02-04T05:19:45;6.20;99.90
31765;DHT22;18338;53.240;8.798;2024-02-04T05:22:12;6.20;99.90
31765;DHT22;18338;53.240;8.798;2024-02-04T05:24:39;6.10;99.90
31765;DHT22;18338;53.240;8.798;2024-02-04T05:27:05;6.20;99.90
31765;DHT22;18338;53.240;8.798;2024-02-04T05:29:32;6.10;99.90
31765;DHT22;18338;53.240;8.798;2024-02-04T05:31:59;6.20;99.90
31765;DHT22;18338;53.240;8.798;2024-02-04T05:34:26;6.20;99.90
31765;DHT22;18338;53.240;8.798;2024-02-04T05:36:53;6.20;99.90
31765;DHT22;18338;53.240;8.798;2024-02-04T05:39:20;6.20;99.90
31765;DHT22;18338;53.240;8.798;2024-02-04T05:41:47;6.20;99.90
31765;DHT22;18338;53.240;8.798;2024-02-04T05:44:13;6.20;99.90
31765;DHT22;18338;53.240;8.798;2024-02-04T05:46:40;6.20;99.90
31765;DHT22;18338;53.240;8.798;2024-02-04T05:49:07;6.20;99.90
31765;DHT22;18338;53.240;8.798;2024-02-04T05:51:38;6.20;99.90
31765;DHT22;18338;53.240;8.798;2024-02-04T05:54:09;6.20;99.90
31765;DHT22;18338;53.240;8.798;2024-02-04T05:56:36;6.20;99.90
31765;DHT22;18338;53.240;8.798;2024-02-04T05:59:02;6.20;99.90
31765;DHT22;18338;53.240;8.798;2024-02-04T06:01:29;6.10;99.90
31765;DHT22;18338;53.240;8.798;2024-02-04T06:03:56;6.20;99.90
31765;DHT22;18338;53.240;8.798;2024-02-04T06:06:23;6.20;99.90
31765;DHT22;18338;53.240;8.798;2024-02-04T06:08:51;6.20;99.90
31765;DHT22;18338;53.240;8.798;2024-02-04T06:11:18;6.20;99.90
31765;DHT22;18338;53.240;8.798;2024-02-04T06:13:45;6.20;99.90
31765;DHT22;18338;53.240;8.798;2024-02-04T06:16:12;6.20;99.90
31765;DHT22;18338;53.240;8.798;2024-02-04T06:18:39;6.10;99.90
31765;DHT22;18338;53.240;8.798;2024-02-04T06:21:07;6.10;99.90
31765;DHT22;18338;53.240;8.798;2024-02-04T06:23:34;6.10;99.90
31765;DHT22;18338;53.240;8.798;2024-02-04T06:26:01;6.10;99.90
31765;DHT22;18338;53.240;8.798;2024-02-04T06:28:28;6.10;99.90
31765;DHT22;18338;53.240;8.798;2024-02-04T06:30:55;6.10;99.90
31765;DHT22;18338;53.240;8.798;2024-02-04T06:33:22;6.10;99.90
31765;DHT22;18338;53.240;8.798;2024-02-04T06:35:51;6.10;99.90
31765;DHT22;18338;53.240;8.798;2024-02-04T06:38:18;6.20;99.90
31765;DHT22;18338;53.240;8.798;2024-02-04T06:40:45;6.20;99.90
31765;DHT22;18338;53.240;8.798;2024-02-04T06:43:12;6.20;99.90
31765;DHT22;18338;53.240;8.798;2024-02-04T06:45:40;6.20;99.90
31765;DHT22;18338;53.240;8.798;2024-02-04T06:48:07;6.30;99.90
31765;DHT22;18338;53.240;8.798;2024-02-04T06:50:35;6.30;99.90
31765;DHT22;18338;53.240;8.798;2024-02-04T06:53:02;6.30;99.90
31765;DHT22;18338;53.240;8.798;2024-02-04T06:55:28;6.30;99.90
31765;DHT22;18338;53.240;8.798;2024-02-04T06:57:55;6.30;99.90
31765;DHT22;18338;53.240;8.798;2024-02-04T07:00:22;6.20;99.90
31765;DHT22;18338;53.240;8.798;2024-02-04T07:02:49;6.30;99.90
31765;DHT22;18338;53.240;8.798;2024-02-04T07:05:16;6.30;99.90
31765;DHT22;18338;53.240;8.798;2024-02-04T07:07:43;6.40;99.90
31765;DHT22;18338;53.240;8.798;2024-02-04T07:10:10;6.30;99.90
31765;DHT22;18338;53.240;8.798;2024-02-04T07:12:37;6.30;99.90
31765;DHT22;18338;53.240;8.798;2024-02-04T07:15:04;6.40;99.90
31765;DHT22;18338;53.240;8.798;2024-02-04T07:17:31;6.40;99.90
31765;DHT22;18338;53.240;8.798;2024-02-04T07:19:58;6.40;99.90
31765;DHT22;18338;53.240;8.798;2024-02-04T07:22:25;6.40;99.90
31765;DHT22;18338;53.240;8.798;2024-02-04T07:24:51;6.40;99.90
31765;DHT22;18338;53.240;8.798;2024-02-04T07:27:19;6.50;99.90
31765;DHT22;18338;53.240;8.798;2024-02-04T07:29:45;6.50;99.90
31765;DHT22;18338;53.240;8.798;2024-02-04T07:32:14;6.50;99.90
31765;DHT22;18338;53.240;8.798;2024-02-04T07:34:41;6.60;99.90
31765;DHT22;18338;53.240;8.798;2024-02-04T07:37:08;6.60;99.90
31765;DHT22;18338;53.240;8.798;2024-02-04T07:39:35;6.60;99.90
31765;DHT22;18338;53.240;8.798;2024-02-04T07:42:02;6.60;99.90
31765;DHT22;18338;53.240;8.798;2024-02-04T07:44:30;6.60;99.90
31765;DHT22;18338;53.240;8.798;2024-02-04T07:46:56;6.70;99.90
31765;DHT22;18338;53.240;8.798;2024-02-04T07:49:23;6.70;99.90
31765;DHT22;18338;53.240;8.798;2024-02-04T07:51:51;6.70;99.90
31765;DHT22;18338;53.240;8.798;2024-02-04T07:54:17;6.70;99.90
31765;DHT22;18338;53.240;8.798;2024-02-04T07:56:44;6.80;99.90
31765;DHT22;18338;53.240;8.798;2024-02-04T07:59:11;6.80;99.90
31765;DHT22;18338;53.240;8.798;2024-02-04T08:01:38;6.80;99.90
31765;DHT22;18338;53.240;8.798;2024-02-04T08:04:05;6.80;99.90
31765;DHT22;18338;53.240;8.798;2024-02-04T08:06:34;6.90;99.90
31765;DHT22;18338;53.240;8.798;2024-02-04T08:09:02;6.90;99.90
31765;DHT22;18338;53.240;8.798;2024-02-04T08:11:28;7.00;99.90
31765;DHT22;18338;53.240;8.798;2024-02-04T08:13:55;7.00;99.90
31765;DHT22;18338;53.240;8.798;2024-02-04T08:16:22;7.00;99.90
31765;DHT22;18338;53.240;8.798;2024-02-04T08:18:48;7.00;99.90
31765;DHT22;18338;53.240;8.798;2024-02-04T08:21:15;7.00;99.90
31765;DHT22;18338;53.240;8.798;2024-02-04T08:23:42;7.10;99.90
31765;DHT22;18338;53.240;8.798;2024-02-04T08:26:09;7.10;99.90
31765;DHT22;18338;53.240;8.798;2024-02-04T08:28:35;7.20;99.90
31765;DHT22;18338;53.240;8.798;2024-02-04T08:31:02;7.20;99.90
31765;DHT22;18338;53.240;8.798;2024-02-04T08:33:29;7.20;99.90
31765;DHT22;18338;53.240;8.798;2024-02-04T08:35:56;7.20;99.90
31765;DHT22;18338;53.240;8.798;2024-02-04T08:38:23;7.30;99.90
31765;DHT22;18338;53.240;8.798;2024-02-04T08:40:50;7.30;99.90
31765;DHT22;18338;53.240;8.798;2024-02-04T08:43:16;7.30;99.90
31765;DHT22;18338;53.240;8.798;2024-02-04T08:45:44;7.30;99.90
31765;DHT22;18338;53.240;8.798;2024-02-04T08:48:11;7.30;99.90
31765;DHT22;18338;53.240;8.798;2024-02-04T08:50:38;7.40;99.90
31765;DHT22;18338;53.240;8.798;2024-02-04T08:53:04;7.40;99.90
31765;DHT22;18338;53.240;8.798;2024-02-04T08:55:31;7.40;99.90
31765;DHT22;18338;53.240;8.798;2024-02-04T08:57:58;7.40;99.90
31765;DHT22;18338;53.240;8.798;2024-02-04T09:00:25;7.40;99.90
31765;DHT22;18338;53.240;8.798;2024-02-04T09:02:52;7.50;99.90
31765;DHT22;18338;53.240;8.798;2024-02-04T09:05:19;7.50;99.90
31765;DHT22;18338;53.240;8.798;2024-02-04T09:07:46;7.50;99.90
31765;DHT22;18338;53.240;8.798;2024-02-04T09:10:13;7.50;99.90
31765;DHT22;18338;53.240;8.798;2024-02-04T09:12:40;7.50;99.90
31765;DHT22;18338;53.240;8.798;2024-02-04T09:15:07;7.60;99.90
31765;DHT22;18338;53.240;8.798;2024-02-04T09:17:34;7.60;99.90
31765;DHT22;18338;53.240;8.798;2024-02-04T09:20:01;7.60;99.90
31765;DHT22;18338;53.240;8.798;2024-02-04T09:22:29;7.70;99.90
31765;DHT22;18338;53.240;8.798;2024-02-04T09:24:56;7.70;99.90
31765;DHT22;18338;53.240;8.798;2024-02-04T09:27:23;7.70;99.90
31765;DHT22;18338;53.240;8.798;2024-02-04T09:29:50;7.70;99.90
31765;DHT22;18338;53.240;8.798;2024-02-04T09:32:17;7.70;99.90
31765;DHT22;18338;53.240;8.798;2024-02-04T09:34:45;7.80;99.90
31765;DHT22;18338;53.240;8.798;2024-02-04T09:37:12;7.80;99.90
31765;DHT22;18338;53.240;8.798;2024-02-04T09:39:39;7.80;99.90
31765;DHT22;18338;53.240;8.798;2024-02-04T09:42:06;7.90;99.90
31765;DHT22;18338;53.240;8.798;2024-02-04T09:44:33;7.90;99.90
31765;DHT22;18338;53.240;8.798;2024-02-04T09:47:03;8.00;99.90
31765;DHT22;18338;53.240;8.798;2024-02-04T09:49:30;8.00;99.90
31765;DHT22;18338;53.240;8.798;2024-02-04T09:51:59;8.10;99.90
31765;DHT22;18338;53.240;8.798;2024-02-04T09:54:31;8.10;99.90
31765;DHT22;18338;53.240;8.798;2024-02-04T09:56:58;8.10;99.90
31765;DHT22;18338;53.240;8.798;2024-02-04T09:59:25;8.10;99.90
31765;DHT22;18338;53.240;8.798;2024-02-04T10:01:52;8.20;99.90
31765;DHT22;18338;53.240;8.798;2024-02-04T10:04:20;8.30;99.90
31765;DHT22;18338;53.240;8.798;2024-02-04T10:06:47;8.40;99.90
31765;DHT22;18338;53.240;8.798;2024-02-04T10:09:14;8.40;99.90
31765;DHT22;18338;53.240;8.798;2024-02-04T10:11:41;8.30;99.90
31765;DHT22;18338;53.240;8.798;2024-02-04T10:14:08;8.30;99.90
31765;DHT22;18338;53.240;8.798;2024-02-04T10:16:37;8.30;99.90
31765;DHT22;18338;53.240;8.798;2024-02-04T10:19:04;8.30;99.90
31765;DHT22;18338;53.240;8.798;2024-02-04T10:21:31;8.30;99.90
31765;DHT22;18338;53.240;8.798;2024-02-04T10:23:58;8.40;99.90
31765;DHT22;18338;53.240;8.798;2024-02-04T10:26:29;8.40;99.90
31765;DHT22;18338;53.240;8.798;2024-02-04T10:28:58;8.50;99.90
31765;DHT22;18338;53.240;8.798;2024-02-04T10:31:26;8.40;99.90
31765;DHT22;18338;53.240;8.798;2024-02-04T10:33:54;8.50;99.90
31765;DHT22;18338;53.240;8.798;2024-02-04T10:36:21;8.70;99.90
31765;DHT22;18338;53.240;8.798;2024-02-04T10:38:47;8.90;99.90
31765;DHT22;18338;53.240;8.798;2024-02-04T10:41:18;9.10;99.90
31765;DHT22;18338;53.240;8.798;2024-02-04T10:43:45;9.30;99.90
31765;DHT22;18338;53.240;8.798;2024-02-04T10:46:22;9.40;99.90
31765;DHT22;18338;53.240;8.798;2024-02-04T10:49:00;9.50;99.90
31765;DHT22;18338;53.240;8.798;2024-02-04T10:51:27;9.50;99.90
31765;DHT22;18338;53.240;8.798;2024-02-04T10:53:56;9.80;99.90
31765;DHT22;18338;53.240;8.798;2024-02-04T10:56:44;10.10;99.90
31765;DHT22;18338;53.240;8.798;2024-02-04T10:59:13;10.90;99.90
31765;DHT22;18338;53.240;8.798;2024-02-04T11:01:45;10.90;99.90
31765;DHT22;18338;53.240;8.798;2024-02-04T11:04:15;10.50;99.90
31765;DHT22;18338;53.240;8.798;2024-02-04T11:06:44;10.10;99.90
31765;DHT22;18338;53.240;8.798;2024-02-04T11:09:12;9.80;99.90
31765;DHT22;18338;53.240;8.798;2024-02-04T11:11:40;9.70;99.90
31765;DHT22;18338;53.240;8.798;2024-02-04T11:14:17;9.40;99.90
31765;DHT22;18338;53.240;8.798;2024-02-04T11:22:48;9.50;99.90
31765;DHT22;18338;53.240;8.798;2024-02-04T11:25:31;9.60;99.90
31765;DHT22;18338;53.240;8.798;2024-02-04T11:28:02;9.60;99.90
31765;DHT22;18338;53.240;8.798;2024-02-04T11:30:33;9.50;99.90
31765;DHT22;18338;53.240;8.798;2024-02-04T11:33:01;9.40;99.90
31765;DHT22;18338;53.240;8.798;2024-02-04T11:35:29;9.40;99.90
31765;DHT22;18338;53.240;8.798;2024-02-04T11:37:56;9.40;99.90
31765;DHT22;18338;53.240;8.798;2024-02-04T11:40:36;9.40;99.90
31765;DHT22;18338;53.240;8.798;2024-02-04T11:43:10;9.40;99.90
31765;DHT22;18338;53.240;8.798;2024-02-04T11:45:41;9.50;99.90
31765;DHT22;18338;53.240;8.798;2024-02-04T11:48:10;9.50;99.90
31765;DHT22;18338;53.240;8.798;2024-02-04T11:50:38;9.70;99.90
31765;DHT22;18338;53.240;8.798;2024-02-04T11:53:10;9.80;99.90
31765;DHT22;18338;53.240;8.798;2024-02-04T11:55:40;10.00;99.90
31765;DHT22;18338;53.240;8.798;2024-02-04T11:58:12;10.00;99.90
31765;DHT22;18338;53.240;8.798;2024-02-04T12:00:42;10.10;99.90
31765;DHT22;18338;53.240;8.798;2024-02-04T12:03:11;10.10;99.90
31765;DHT22;18338;53.240;8.798;2024-02-04T12:05:38;9.80;99.90
31765;DHT22;18338;53.240;8.798;2024-02-04T12:08:08;9.70;99.90
31765;DHT22;18338;53.240;8.798;2024-02-04T12:10:36;9.70;99.90
31765;DHT22;18338;53.240;8.798;2024-02-04T12:13:05;9.80;99.90
31765;DHT22;18338;53.240;8.798;2024-02-04T12:15:36;9.60;99.90
31765;DHT22;18338;53.240;8.798;2024-02-04T12:18:08;9.50;99.90
31765;DHT22;18338;53.240;8.798;2024-02-04T12:20:36;9.40;99.90
31765;DHT22;18338;53.240;8.798;2024-02-04T12:23:07;9.30;99.90
31765;DHT22;18338;53.240;8.798;2024-02-04T12:25:34;9.20;99.90
31765;DHT22;18338;53.240;8.798;2024-02-04T12:28:03;9.20;99.90
31765;DHT22;18338;53.240;8.798;2024-02-04T12:30:31;9.20;99.90
31765;DHT22;18338;53.240;8.798;2024-02-04T12:33:03;9.20;99.90
31765;DHT22;18338;53.240;8.798;2024-02-04T12:35:34;9.20;99.90
31765;DHT22;18338;53.240;8.798;2024-02-04T12:38:00;9.20;99.90
31765;DHT22;18338;53.240;8.798;2024-02-04T12:40:29;9.20;99.90
31765;DHT22;18338;53.240;8.798;2024-02-04T12:42:57;9.20;99.90
31765;DHT22;18338;53.240;8.798;2024-02-04T12:45:31;9.20;99.90
31765;DHT22;18338;53.240;8.798;2024-02-04T12:47:58;9.20;99.90
31765;DHT22;18338;53.240;8.798;2024-02-04T12:50:25;9.10;99.90
31765;DHT22;18338;53.240;8.798;2024-02-04T12:53:06;9.10;99.90
31765;DHT22;18338;53.240;8.798;2024-02-04T12:55:37;9.10;99.90
31765;DHT22;18338;53.240;8.798;2024-02-04T12:58:08;9.00;99.90
31765;DHT22;18338;53.240;8.798;2024-02-04T13:00:36;9.00;99.90
31765;DHT22;18338;53.240;8.798;2024-02-04T13:03:05;9.00;99.90
31765;DHT22;18338;53.240;8.798;2024-02-04T13:05:32;9.00;99.90
31765;DHT22;18338;53.240;8.798;2024-02-04T13:08:00;9.00;99.90
31765;DHT22;18338;53.240;8.798;2024-02-04T13:10:33;9.00;99.90
31765;DHT22;18338;53.240;8.798;2024-02-04T13:13:10;9.00;99.90
31765;DHT22;18338;53.240;8.798;2024-02-04T13:15:41;9.00;99.90
31765;DHT22;18338;53.240;8.798;2024-02-04T13:18:10;9.00;99.90
31765;DHT22;18338;53.240;8.798;2024-02-04T13:20:38;9.00;99.90
31765;DHT22;18338;53.240;8.798;2024-02-04T13:23:07;9.00;99.90
31765;DHT22;18338;53.240;8.798;2024-02-04T13:25:34;9.00;99.90
31765;DHT22;18338;53.240;8.798;2024-02-04T13:28:01;9.00;99.90
31765;DHT22;18338;53.240;8.798;2024-02-04T13:30:29;9.00;99.90
31765;DHT22;18338;53.240;8.798;2024-02-04T13:32:56;9.00;99.90
31765;DHT22;18338;53.240;8.798;2024-02-04T13:35:24;9.10;99.90
31765;DHT22;18338;53.240;8.798;2024-02-04T13:37:51;9.10;99.90
31765;DHT22;18338;53.240;8.798;2024-02-04T13:40:20;9.10;99.90
31765;DHT22;18338;53.240;8.798;2024-02-04T13:42:47;9.10;99.90
31765;DHT22;18338;53.240;8.798;2024-02-04T13:45:14;9.10;99.90
31765;DHT22;18338;53.240;8.798;2024-02-04T13:47:42;9.00;99.90
31765;DHT22;18338;53.240;8.798;2024-02-04T13:50:09;9.00;99.90
31765;DHT22;18338;53.240;8.798;2024-02-04T13:52:37;9.10;99.90
31765;DHT22;18338;53.240;8.798;2024-02-04T13:55:04;9.00;99.90
31765;DHT22;18338;53.240;8.798;2024-02-04T13:57:35;9.00;99.90
31765;DHT22;18338;53.240;8.798;2024-02-04T14:00:03;8.90;99.90
31765;DHT22;18338;53.240;8.798;2024-02-04T14:02:31;8.90;99.90
31765;DHT22;18338;53.240;8.798;2024-02-04T14:04:58;8.90;99.90
31765;DHT22;18338;53.240;8.798;2024-02-04T14:07:26;8.80;99.90
31765;DHT22;18338;53.240;8.798;2024-02-04T14:09:54;8.90;99.90
31765;DHT22;18338;53.240;8.798;2024-02-04T14:12:21;8.90;99.90
31765;DHT22;18338;53.240;8.798;2024-02-04T14:14:48;8.90;99.90
31765;DHT22;18338;53.240;8.798;2024-02-04T14:17:14;8.80;99.90
31765;DHT22;18338;53.240;8.798;2024-02-04T14:19:41;8.80;99.90
31765;DHT22;18338;53.240;8.798;2024-02-04T14:22:08;8.80;99.90
31765;DHT22;18338;53.240;8.798;2024-02-04T14:24:35;8.80;99.90
31765;DHT22;18338;53.240;8.798;2024-02-04T14:27:02;8.80;99.90
31765;DHT22;18338;53.240;8.798;2024-02-04T14:29:29;8.80;99.90
31765;DHT22;18338;53.240;8.798;2024-02-04T14:31:56;8.80;99.90
31765;DHT22;18338;53.240;8.798;2024-02-04T14:34:24;8.70;99.90
31765;DHT22;18338;53.240;8.798;2024-02-04T14:36:52;8.70;99.90
31765;DHT22;18338;53.240;8.798;2024-02-04T14:39:19;8.70;99.90
31765;DHT22;18338;53.240;8.798;2024-02-04T14:41:46;8.70;99.90
31765;DHT22;18338;53.240;8.798;2024-02-04T14:44:12;8.60;99.90
31765;DHT22;18338;53.240;8.798;2024-02-04T14:46:39;8.60;99.90
31765;DHT22;18338;53.240;8.798;2024-02-04T14:49:06;8.60;99.90
31765;DHT22;18338;53.240;8.798;2024-02-04T14:51:33;8.50;99.90
31765;DHT22;18338;53.240;8.798;2024-02-04T14:54:01;8.50;99.90
31765;DHT22;18338;53.240;8.798;2024-02-04T14:56:28;8.40;99.90
31765;DHT22;18338;53.240;8.798;2024-02-04T14:58:56;8.40;99.90
31765;DHT22;18338;53.240;8.798;2024-02-04T15:01:22;8.30;99.90
31765;DHT22;18338;53.240;8.798;2024-02-04T15:03:49;8.30;99.90
31765;DHT22;18338;53.240;8.798;2024-02-04T15:06:16;8.30;99.90
31765;DHT22;18338;53.240;8.798;2024-02-04T15:08:43;8.20;99.90
31765;DHT22;18338;53.240;8.798;2024-02-04T15:11:10;8.20;99.90
31765;DHT22;18338;53.240;8.798;2024-02-04T15:13:37;8.20;99.90
31765;DHT22;18338;53.240;8.798;2024-02-04T15:16:04;8.20;99.90
31765;DHT22;18338;53.240;8.798;2024-02-04T15:18:33;8.20;99.90
31765;DHT22;18338;53.240;8.798;2024-02-04T15:21:01;8.10;99.90
31765;DHT22;18338;53.240;8.798;2024-02-04T15:23:28;8.10;99.90
31765;DHT22;18338;53.240;8.798;2024-02-04T15:25:55;8.10;99.90
31765;DHT22;18338;53.240;8.798;2024-02-04T15:28:24;8.00;99.90
31765;DHT22;18338;53.240;8.798;2024-02-04T15:30:51;8.00;99.90
31765;DHT22;18338;53.240;8.798;2024-02-04T15:33:18;8.00;99.90
31765;DHT22;18338;53.240;8.798;2024-02-04T15:35:45;7.90;99.90
31765;DHT22;18338;53.240;8.798;2024-02-04T15:38:12;7.90;99.90
31765;DHT22;18338;53.240;8.798;2024-02-04T15:40:43;7.90;99.90
31765;DHT22;18338;53.240;8.798;2024-02-04T15:43:11;7.90;99.90
31765;DHT22;18338;53.240;8.798;2024-02-04T15:45:38;7.80;99.90
31765;DHT22;18338;53.240;8.798;2024-02-04T15:48:05;7.80;99.90
31765;DHT22;18338;53.240;8.798;2024-02-04T15:50:34;7.80;99.90
31765;DHT22;18338;53.240;8.798;2024-02-04T15:53:04;7.80;99.90
31765;DHT22;18338;53.240;8.798;2024-02-04T15:55:32;7.70;99.90